ICAO code: LHPR | IATA code: QGY | SITA: QGYAPXH | AFTN: LHPRZPZX

Időjárási adatok

METAR LHPR 200845Z AUTO 24008KT 200V280 CAVOK 07/01 Q1016 NOSIG=
TAF LHPR 200815Z 2009/2018 23007KT CAVOK BECMG 2009/2012 22016G26KT
BECMG 2012/2015 20011KT BECMG 2015/2018 21016G26KT=
Nem volt érdemleges időjárási jelenség az elmúlt órában
2021-01-20 09:00:00 UTC
Hőmérséklet
7.4 °C
 
Harmatpont
0.9 °C
 
Rel. páratartalom
63%
 
QNH
1016.2 hPa
 
Szélsebesség
3.4 m/s
Max
6.3 m/s
Szélirány
250°
 
Csapadék (1 óra)
0.0 mm
 
Látótávolság
20000 m
 
RVR
>1500 m RWY30
 
1. felhőréteg mennyisége
0 octa
 
1. felhőréteg alapja
m